createdAt,value
2023-08-15T00:01:37.892Z,6.22
2023-08-15T00:04:40.725Z,6.22
2023-08-15T00:07:43.556Z,5.38
2023-08-15T00:10:48.351Z,6.00
2023-08-15T00:13:51.296Z,5.72
2023-08-15T00:16:54.214Z,6.15
2023-08-15T00:19:57.037Z,5.33
2023-08-15T00:22:59.883Z,5.70
2023-08-15T00:26:04.024Z,5.03
2023-08-15T00:29:06.818Z,5.23
2023-08-15T00:32:09.660Z,4.95
2023-08-15T00:35:13.198Z,5.20
2023-08-15T00:38:16.034Z,5.22
2023-08-15T00:41:20.418Z,4.95
2023-08-15T00:44:23.226Z,5.00
2023-08-15T00:47:26.914Z,4.88
2023-08-15T00:50:30.220Z,5.77
2023-08-15T00:53:36.044Z,5.03
2023-08-15T00:56:40.452Z,5.18
2023-08-15T00:59:44.694Z,5.10
2023-08-15T01:02:47.961Z,5.20
2023-08-15T01:05:51.708Z,5.00
2023-08-15T01:08:54.677Z,5.33
2023-08-15T01:12:07.806Z,5.07
2023-08-15T01:15:17.815Z,5.25
2023-08-15T01:18:26.642Z,5.40
2023-08-15T01:21:44.316Z,5.78
2023-08-15T01:24:49.541Z,5.50
2023-08-15T01:27:52.328Z,5.17
2023-08-15T01:30:58.570Z,5.07
2023-08-15T01:34:08.989Z,5.30
2023-08-15T01:37:19.997Z,5.55
2023-08-15T01:40:25.499Z,5.03
2023-08-15T01:43:29.679Z,4.90
2023-08-15T01:46:34.495Z,5.35
2023-08-15T01:49:37.295Z,5.47
2023-08-15T01:52:40.153Z,5.38
2023-08-15T01:55:44.296Z,5.00
2023-08-15T01:58:47.149Z,5.53
2023-08-15T02:01:49.946Z,5.60
2023-08-15T02:04:52.769Z,5.15
2023-08-15T02:07:55.631Z,5.22
2023-08-15T02:10:59.824Z,5.07
2023-08-15T02:14:02.650Z,5.72
2023-08-15T02:17:05.497Z,5.23
2023-08-15T02:20:09.297Z,5.05
2023-08-15T02:23:12.626Z,4.70
2023-08-15T02:26:16.948Z,5.45
2023-08-15T02:29:19.807Z,4.90
2023-08-15T02:32:22.801Z,4.95
2023-08-15T02:35:25.676Z,5.18
2023-08-15T02:38:28.517Z,4.82
2023-08-15T02:41:32.809Z,5.43
2023-08-15T02:44:35.624Z,4.63
2023-08-15T02:47:38.457Z,5.13
2023-08-15T02:50:41.299Z,5.18
2023-08-15T02:53:44.098Z,4.63
2023-08-15T02:56:48.252Z,5.00
2023-08-15T02:59:51.175Z,5.10
2023-08-15T03:02:54.658Z,4.90
2023-08-15T03:06:01.473Z,4.80
2023-08-15T03:09:04.891Z,4.88
2023-08-15T03:12:09.633Z,5.10
2023-08-15T03:15:12.514Z,5.28
2023-08-15T03:18:15.309Z,4.32
2023-08-15T03:21:18.155Z,4.93
2023-08-15T03:24:20.994Z,4.43
2023-08-15T03:27:25.140Z,4.53
2023-08-15T03:30:28.081Z,4.93
2023-08-15T03:33:30.974Z,4.80
2023-08-15T03:36:33.775Z,4.40
2023-08-15T03:39:36.578Z,4.00
2023-08-15T03:42:40.719Z,4.50
2023-08-15T03:45:43.590Z,4.13
2023-08-15T03:48:46.449Z,4.37
2023-08-15T03:51:49.284Z,3.97
2023-08-15T03:54:52.096Z,4.05
2023-08-15T03:57:56.411Z,4.35
2023-08-15T04:00:59.562Z,4.30
2023-08-15T04:04:02.488Z,4.00
2023-08-15T04:07:05.441Z,4.30
2023-08-15T04:10:09.430Z,3.80
2023-08-15T04:13:14.598Z,3.60
2023-08-15T04:16:17.457Z,4.20
2023-08-15T04:19:20.246Z,4.22
2023-08-15T04:22:23.088Z,4.15
2023-08-15T04:25:28.329Z,3.60
2023-08-15T04:28:33.677Z,4.38
2023-08-15T04:31:36.482Z,3.90
2023-08-15T04:34:39.292Z,3.83
2023-08-15T04:37:42.238Z,3.47
2023-08-15T04:40:45.271Z,3.63
2023-08-15T04:43:49.564Z,4.50
2023-08-15T04:46:52.337Z,4.13
2023-08-15T04:49:55.134Z,3.90
2023-08-15T04:52:57.938Z,4.40
2023-08-15T04:56:00.827Z,4.13
2023-08-15T04:59:05.110Z,3.92
2023-08-15T05:02:08.027Z,3.78
2023-08-15T05:05:11.757Z,4.03
2023-08-15T05:08:14.606Z,3.65
2023-08-15T05:11:17.428Z,3.95
2023-08-15T05:14:21.570Z,3.65
2023-08-15T05:17:24.470Z,3.65
2023-08-15T05:20:27.466Z,3.92
2023-08-15T05:23:30.316Z,4.28
2023-08-15T05:26:33.472Z,3.38
2023-08-15T05:29:37.600Z,3.42
2023-08-15T05:32:40.477Z,3.50
2023-08-15T05:35:44.338Z,3.72
2023-08-15T05:38:47.131Z,3.57
2023-08-15T05:41:49.926Z,3.35
2023-08-15T05:44:54.156Z,3.77
2023-08-15T05:47:57.399Z,3.60
2023-08-15T05:51:00.923Z,3.40
2023-08-15T05:54:04.305Z,3.40
2023-08-15T05:57:07.336Z,3.90
2023-08-15T06:00:14.481Z,3.55
2023-08-15T06:03:22.385Z,3.53
2023-08-15T06:06:34.202Z,3.90
2023-08-15T06:09:37.075Z,3.25
2023-08-15T06:12:39.880Z,3.83
2023-08-15T06:15:44.049Z,3.38
2023-08-15T06:18:46.958Z,3.80
2023-08-15T06:21:49.765Z,3.42
2023-08-15T06:24:52.862Z,3.70
2023-08-15T06:27:55.683Z,3.58
2023-08-15T06:30:59.870Z,3.33
2023-08-15T06:34:04.468Z,3.17
2023-08-15T06:37:07.256Z,3.08
2023-08-15T06:40:12.626Z,3.20
2023-08-15T06:43:15.502Z,3.35
2023-08-15T06:46:19.864Z,2.95
2023-08-15T06:49:22.714Z,2.90
2023-08-15T06:52:25.551Z,3.10
2023-08-15T06:55:28.407Z,3.20
2023-08-15T06:58:31.239Z,3.00
2023-08-15T07:01:35.503Z,3.30
2023-08-15T07:04:41.378Z,3.03
2023-08-15T07:07:44.206Z,2.97
2023-08-15T07:10:47.037Z,3.08
2023-08-15T07:13:49.822Z,3.00
2023-08-15T07:16:54.030Z,2.92
2023-08-15T07:19:57.133Z,2.90
2023-08-15T07:23:00.071Z,3.30
2023-08-15T07:26:03.921Z,3.42
2023-08-15T07:29:06.737Z,3.53
2023-08-15T07:32:13.386Z,3.70
2023-08-15T07:35:16.773Z,3.92
2023-08-15T07:38:19.590Z,3.55
2023-08-15T07:41:22.426Z,3.53
2023-08-15T07:44:26.872Z,3.78
2023-08-15T07:47:35.167Z,3.40
2023-08-15T07:50:38.022Z,3.40
2023-08-15T07:53:40.965Z,3.53
2023-08-15T07:56:43.779Z,3.85
2023-08-15T07:59:48.882Z,3.87
2023-08-15T08:02:53.374Z,3.80
2023-08-15T08:05:56.294Z,3.63
2023-08-15T08:09:00.148Z,3.80
2023-08-15T08:12:04.170Z,3.80
2023-08-15T08:15:08.390Z,3.60
2023-08-15T08:18:12.625Z,4.55
2023-08-15T08:21:15.565Z,3.92
2023-08-15T08:24:18.377Z,3.97
2023-08-15T08:27:21.984Z,4.00
2023-08-15T08:30:26.725Z,4.03
2023-08-15T08:33:32.310Z,3.63
2023-08-15T08:36:35.113Z,4.22
2023-08-15T08:39:37.918Z,3.85
2023-08-15T08:42:41.764Z,4.15
2023-08-15T08:45:50.585Z,4.40
2023-08-15T08:48:54.909Z,4.20
2023-08-15T08:51:58.618Z,4.65
2023-08-15T08:55:01.618Z,3.92
2023-08-15T08:58:06.032Z,4.45
2023-08-15T09:01:09.339Z,4.20
2023-08-15T09:04:13.709Z,4.80
2023-08-15T09:07:17.724Z,4.47
2023-08-15T09:10:24.096Z,4.20
2023-08-15T09:13:27.096Z,4.17
2023-08-15T09:16:30.054Z,4.43
2023-08-15T09:19:41.343Z,4.65
2023-08-15T09:22:46.755Z,4.10
2023-08-15T09:25:54.762Z,5.03
2023-08-15T09:28:58.904Z,4.45
2023-08-15T09:32:02.442Z,4.43
2023-08-15T09:35:07.616Z,4.82
2023-08-15T09:38:11.635Z,4.88
2023-08-15T09:41:14.544Z,4.53
2023-08-15T09:44:31.460Z,4.32
2023-08-15T09:47:34.865Z,5.03
2023-08-15T09:50:42.591Z,4.65
2023-08-15T09:53:46.417Z,4.90
2023-08-15T09:56:49.414Z,5.27
2023-08-15T09:59:52.374Z,4.68
2023-08-15T10:03:01.606Z,4.50
2023-08-15T10:06:09.059Z,4.77
2023-08-15T10:09:15.760Z,4.85
2023-08-15T10:12:20.110Z,4.60
2023-08-15T10:15:24.228Z,4.60
2023-08-15T10:18:27.729Z,4.65
2023-08-15T10:21:48.217Z,5.05
2023-08-15T10:24:51.356Z,4.65
2023-08-15T10:27:55.545Z,4.60
2023-08-15T10:30:59.143Z,4.85
2023-08-15T10:34:04.084Z,4.80
2023-08-15T10:37:30.492Z,4.68
2023-08-15T10:40:40.838Z,4.63
2023-08-15T10:43:49.238Z,4.70
2023-08-15T10:46:52.151Z,4.68
2023-08-15T10:49:55.289Z,4.65
2023-08-15T10:53:03.430Z,4.37
2023-08-15T10:56:06.747Z,4.63
2023-08-15T10:59:12.768Z,4.57
2023-08-15T11:02:15.676Z,4.40
2023-08-15T11:05:20.316Z,4.68
2023-08-15T11:08:24.511Z,4.40
2023-08-15T11:11:27.927Z,4.32
2023-08-15T11:14:30.779Z,4.38
2023-08-15T11:17:33.619Z,4.20
2023-08-15T11:20:36.531Z,3.90
2023-08-15T11:23:41.586Z,4.20
2023-08-15T11:26:44.406Z,4.25
2023-08-15T11:29:58.099Z,4.03
2023-08-15T11:33:01.602Z,4.10
2023-08-15T11:36:07.047Z,3.80
2023-08-15T11:39:15.012Z,3.95
2023-08-15T11:42:17.969Z,3.97
2023-08-15T11:45:23.917Z,3.70
2023-08-15T11:48:26.738Z,3.50
2023-08-15T11:51:29.777Z,3.45
2023-08-15T11:54:33.928Z,3.72
2023-08-15T11:57:37.215Z,3.22
2023-08-15T12:00:40.024Z,2.83
2023-08-15T12:03:42.922Z,3.30
2023-08-15T12:06:45.922Z,3.33
2023-08-15T12:09:50.179Z,3.22
2023-08-15T12:12:53.933Z,3.08
2023-08-15T12:15:56.819Z,3.20
2023-08-15T12:18:59.740Z,2.95
2023-08-15T12:22:02.593Z,2.50
2023-08-15T12:25:08.874Z,3.30
2023-08-15T12:28:11.802Z,3.40
2023-08-15T12:31:14.876Z,3.00
2023-08-15T12:34:17.724Z,2.60
2023-08-15T12:37:20.590Z,2.50
2023-08-15T12:40:31.087Z,2.85
2023-08-15T12:43:34.507Z,3.00
2023-08-15T12:46:37.381Z,2.70
2023-08-15T12:49:40.675Z,2.90
2023-08-15T12:52:43.530Z,2.83
2023-08-15T12:55:47.737Z,2.47
2023-08-15T12:58:50.615Z,2.90
2023-08-15T13:01:54.063Z,2.88
2023-08-15T13:04:57.175Z,2.72
2023-08-15T13:08:00.037Z,2.58
2023-08-15T13:11:05.786Z,2.97
2023-08-15T13:14:08.641Z,3.28
2023-08-15T13:17:11.609Z,2.60
2023-08-15T13:20:15.801Z,2.60
2023-08-15T13:23:18.712Z,3.15
2023-08-15T13:26:23.249Z,3.28
2023-08-15T13:29:26.380Z,3.35
2023-08-15T13:32:29.234Z,2.50
2023-08-15T13:35:32.492Z,3.40
2023-08-15T13:38:35.797Z,3.03
2023-08-15T13:41:40.024Z,3.40
2023-08-15T13:44:43.048Z,3.17
2023-08-15T13:47:45.867Z,3.13
2023-08-15T13:50:48.848Z,3.33
2023-08-15T13:53:51.818Z,3.13
2023-08-15T13:56:56.157Z,3.10
2023-08-15T13:59:59.273Z,3.47
2023-08-15T14:03:02.173Z,3.08
2023-08-15T14:06:05.883Z,3.55
2023-08-15T14:09:08.715Z,3.40
2023-08-15T14:12:12.944Z,3.15
2023-08-15T14:15:15.822Z,3.60
2023-08-15T14:18:18.685Z,3.33
2023-08-15T14:21:21.496Z,3.60
2023-08-15T14:24:24.555Z,3.25
2023-08-15T14:27:28.715Z,3.47
2023-08-15T14:30:32.211Z,3.15
2023-08-15T14:33:35.072Z,3.60
2023-08-15T14:36:37.913Z,3.55
2023-08-15T14:39:40.738Z,3.60
2023-08-15T14:42:44.891Z,3.42
2023-08-15T14:45:47.745Z,3.70
2023-08-15T14:48:50.602Z,3.85
2023-08-15T14:51:54.543Z,4.33
2023-08-15T14:54:57.945Z,3.75
2023-08-15T14:58:02.481Z,3.80
2023-08-15T15:01:06.942Z,3.58
2023-08-15T15:04:09.754Z,4.18
2023-08-15T15:07:12.596Z,4.00
2023-08-15T15:10:15.514Z,4.18
2023-08-15T15:13:19.813Z,4.37
2023-08-15T15:16:22.771Z,4.50
2023-08-15T15:19:25.948Z,4.18
2023-08-15T15:22:28.790Z,4.77
2023-08-15T15:25:31.642Z,3.65
2023-08-15T15:28:35.801Z,3.97
2023-08-15T15:31:38.605Z,4.13
2023-08-15T15:34:41.457Z,3.90
2023-08-15T15:37:44.623Z,4.00
2023-08-15T15:40:47.418Z,3.92
2023-08-15T15:43:51.710Z,4.38
2023-08-15T15:46:55.788Z,4.15
2023-08-15T15:49:59.194Z,3.95
2023-08-15T15:53:02.577Z,3.83
2023-08-15T15:56:05.957Z,4.10
2023-08-15T15:59:10.294Z,4.20
2023-08-15T16:02:13.118Z,4.63
2023-08-15T16:05:17.062Z,3.78
2023-08-15T16:08:20.034Z,4.35
2023-08-15T16:11:22.907Z,4.43
2023-08-15T16:14:27.050Z,3.92
2023-08-15T16:17:30.138Z,4.30
2023-08-15T16:20:33.014Z,4.32
2023-08-15T16:23:35.879Z,4.13
2023-08-15T16:26:38.704Z,4.22
2023-08-15T16:29:42.838Z,4.50
2023-08-15T16:32:46.411Z,4.32
2023-08-15T16:35:49.329Z,4.32
2023-08-15T16:38:52.369Z,4.40
2023-08-15T16:41:55.214Z,4.07
2023-08-15T16:44:59.426Z,4.63
2023-08-15T16:48:02.253Z,4.03
2023-08-15T16:51:05.261Z,4.55
2023-08-15T16:54:08.159Z,4.07
2023-08-15T16:57:10.985Z,4.75
2023-08-15T17:00:16.340Z,5.00
2023-08-15T17:03:19.364Z,4.50
2023-08-15T17:06:22.307Z,4.93
2023-08-15T17:09:25.867Z,4.60
2023-08-15T17:12:28.724Z,5.20
2023-08-15T17:15:33.692Z,5.07
2023-08-15T17:18:36.539Z,5.10
2023-08-15T17:21:39.385Z,5.03
2023-08-15T17:24:43.295Z,4.35
2023-08-15T17:27:46.146Z,4.40
2023-08-15T17:30:50.381Z,4.38
2023-08-15T17:33:53.255Z,4.20
2023-08-15T17:36:56.114Z,4.20
2023-08-15T17:39:59.025Z,4.75
2023-08-15T17:43:01.859Z,4.33
2023-08-15T17:46:06.202Z,5.18
2023-08-15T17:49:09.028Z,4.65
2023-08-15T17:52:11.841Z,4.87
2023-08-15T17:55:14.641Z,4.53
2023-08-15T17:58:17.445Z,4.57
2023-08-15T18:01:22.282Z,4.60
2023-08-15T18:04:25.138Z,5.27
2023-08-15T18:07:28.032Z,5.43
2023-08-15T18:10:30.922Z,4.93
2023-08-15T18:13:34.164Z,5.10
2023-08-15T18:16:39.527Z,4.85
2023-08-15T18:19:43.904Z,5.68
2023-08-15T18:22:46.755Z,4.88
2023-08-15T18:25:49.681Z,5.00
2023-08-15T18:28:52.500Z,5.45
2023-08-15T18:31:57.010Z,4.63
2023-08-15T18:34:59.867Z,5.70
2023-08-15T18:38:02.727Z,5.20
2023-08-15T18:41:05.592Z,5.38
2023-08-15T18:44:09.038Z,5.78
2023-08-15T18:47:13.253Z,6.07
2023-08-15T18:50:18.660Z,6.90
2023-08-15T18:53:21.509Z,4.97
2023-08-15T18:56:24.408Z,4.68
2023-08-15T18:59:27.347Z,4.18
2023-08-15T19:02:31.597Z,4.40
2023-08-15T19:05:34.583Z,4.70
2023-08-15T19:08:37.648Z,4.53
2023-08-15T19:11:40.451Z,4.18
2023-08-15T19:14:43.280Z,4.43
2023-08-15T19:17:49.679Z,4.53
2023-08-15T19:20:52.937Z,4.25
2023-08-15T19:23:55.747Z,4.22
2023-08-15T19:26:58.567Z,4.43
2023-08-15T19:30:01.760Z,4.25
2023-08-15T19:33:06.337Z,4.55
2023-08-15T19:36:09.288Z,4.75
2023-08-15T19:39:12.289Z,4.55
2023-08-15T19:42:15.570Z,4.70
2023-08-15T19:45:18.678Z,4.20
2023-08-15T19:48:23.046Z,4.30
2023-08-15T19:51:26.436Z,4.05
2023-08-15T19:54:29.329Z,4.23
2023-08-15T19:57:32.947Z,3.80
2023-08-15T20:00:35.814Z,4.37
2023-08-15T20:03:40.792Z,3.83
2023-08-15T20:06:43.837Z,4.43
2023-08-15T20:09:59.263Z,4.00
2023-08-15T20:13:08.131Z,4.13
2023-08-15T20:16:11.219Z,4.57
2023-08-15T20:19:15.478Z,3.75
2023-08-15T20:22:18.495Z,4.25
2023-08-15T20:25:21.492Z,4.18
2023-08-15T20:28:24.524Z,3.77
2023-08-15T20:31:28.039Z,4.03
2023-08-15T20:34:32.316Z,3.60
2023-08-15T20:37:36.921Z,3.87
2023-08-15T20:40:39.736Z,4.22
2023-08-15T20:43:42.829Z,4.40
2023-08-15T20:46:46.256Z,4.25
2023-08-15T20:49:50.513Z,4.03
2023-08-15T20:52:54.793Z,4.03
2023-08-15T20:55:57.772Z,4.68
2023-08-15T20:59:00.737Z,4.15
2023-08-15T21:02:04.656Z,4.10
2023-08-15T21:05:10.912Z,5.40
2023-08-15T21:08:14.227Z,4.82
2023-08-15T21:11:17.149Z,4.77
2023-08-15T21:14:20.057Z,4.82
2023-08-15T21:17:25.943Z,4.65
2023-08-15T21:20:30.398Z,4.75
2023-08-15T21:23:33.850Z,4.65
2023-08-15T21:26:37.986Z,4.60
2023-08-15T21:29:42.186Z,4.63
2023-08-15T21:32:45.048Z,4.47
2023-08-15T21:35:49.555Z,4.15
2023-08-15T21:38:52.363Z,3.73
2023-08-15T21:41:55.160Z,4.60
2023-08-15T21:44:57.939Z,4.57
2023-08-15T21:48:00.764Z,4.70
2023-08-15T21:51:05.041Z,4.50
2023-08-15T21:54:08.001Z,4.30
2023-08-15T21:57:10.810Z,4.30
2023-08-15T22:00:14.841Z,4.60
2023-08-15T22:03:17.748Z,4.85
2023-08-15T22:06:22.056Z,4.57
2023-08-15T22:09:25.374Z,4.35
2023-08-15T22:12:28.473Z,4.50
2023-08-15T22:15:31.321Z,4.50
2023-08-15T22:18:34.243Z,4.30
2023-08-15T22:21:38.738Z,4.30
2023-08-15T22:24:46.340Z,4.75
2023-08-15T22:27:53.780Z,5.07
2023-08-15T22:30:56.593Z,4.75
2023-08-15T22:33:59.558Z,5.03
2023-08-15T22:37:03.705Z,5.28
2023-08-15T22:40:08.406Z,5.10
2023-08-15T22:43:11.287Z,4.57
2023-08-15T22:46:14.241Z,4.63
2023-08-15T22:49:17.044Z,5.18
2023-08-15T22:52:21.227Z,4.53
2023-08-15T22:55:24.083Z,5.05
2023-08-15T22:58:26.898Z,4.43
2023-08-15T23:01:29.776Z,4.65
2023-08-15T23:04:32.627Z,4.40
2023-08-15T23:07:36.863Z,5.07
2023-08-15T23:10:39.698Z,4.90
2023-08-15T23:13:42.529Z,4.60
2023-08-15T23:16:45.348Z,4.75
2023-08-15T23:19:48.341Z,5.33
2023-08-15T23:22:52.491Z,4.72
2023-08-15T23:25:55.390Z,5.47
2023-08-15T23:28:58.209Z,5.53
2023-08-15T23:32:03.649Z,5.28
2023-08-15T23:35:07.786Z,5.43
2023-08-15T23:38:11.954Z,5.20
2023-08-15T23:41:14.789Z,5.18
2023-08-15T23:44:19.659Z,5.18
2023-08-15T23:47:23.047Z,5.50
2023-08-15T23:50:26.155Z,4.70
2023-08-15T23:53:30.362Z,5.30
2023-08-15T23:56:33.456Z,5.13
2023-08-15T23:59:36.393Z,5.50
